La Fontaine, Indiana
Current Conditions -  °F | °C
As of 7:15 PM on Friday 28 Nov 2014 (Local Time) from KHHG Reporting Station
Clear Clear  
Wind Chill: 24°   Ceiling: Unl
Heat Index: 30°   Visibility: 10mi
Dew Point: 20°   Wind: 6mph
Humidity: 67%   Direction: 170°S
Pressure: 30.08"   Gusts: NA
Location:  40.67°N, 85.72°W
Report Text: KHHG 290015Z AUTO 17005KT 10SM CLR M01/M06 A3008 RMK AO2 T10111065
Loading
Personal Weather Stations






























Interactive Weather Map New forecast layout! Learn more

10-Day Weather Forecast

Advertisements
Track Severe Weather on mobile